Time;durP1;ratioP1;P1;durP2;ratioP2;P2;SDS_P1;SDS_P2;PMS_P1;PMS_P2;Temp;Humidity;BMP_temperature;BMP_pressure;BME280_temperature;BME280_humidity;BME280_pressure;Samples;Min_cycle;Max_cycle;Signal;HPM_P1;HPM_P2
2022/05/29 00:00:39;;;;;;;11.23;6.60;;;;;;;7.90;78.76;98548.62;2229447;80;20908;-83
2022/05/29 00:03:39;;;;;;;17.00;6.57;;;;;;;7.88;78.80;98548.14;2229922;80;20964;-82
2022/05/29 00:06:39;;;;;;;9.93;5.60;;;;;;;7.84;78.95;98542.44;2230069;80;20964;-83
2022/05/29 00:09:40;;;;;;;10.07;5.37;;;;;;;7.82;79.13;98538.52;2230065;79;20944;-83
2022/05/29 00:12:42;;;;;;;10.33;5.37;;;;;;;7.81;79.09;98541.96;2229597;80;20888;-83
2022/05/29 00:15:41;;;;;;;9.73;5.63;;;;;;;7.77;79.08;98533.62;2230052;80;20956;-83
2022/05/29 00:18:43;;;;;;;11.83;5.10;;;;;;;7.76;79.17;98534.47;2229828;80;20971;-83
2022/05/29 00:21:41;;;;;;;10.40;5.20;;;;;;;7.75;79.37;98525.35;2264104;78;21388;-82
2022/05/29 00:24:42;;;;;;;10.20;5.00;;;;;;;7.72;79.43;98522.27;2282459;78;20970;-83
2022/05/29 00:27:42;;;;;;;10.90;5.40;;;;;;;7.68;79.55;98518.75;2282402;77;20957;-82
2022/05/29 00:30:43;;;;;;;12.97;6.20;;;;;;;7.64;79.63;98513.05;2282045;78;20883;-83
2022/05/29 00:33:43;;;;;;;8.97;4.47;;;;;;;7.59;79.46;98510.78;2282153;77;20946;-82
2022/05/29 00:36:46;;;;;;;12.70;4.57;;;;;;;7.53;79.68;98509.38;2282919;78;21330;-84
2022/05/29 00:39:47;;;;;;;11.07;4.90;;;;;;;7.47;79.60;98506.67;2282162;78;20910;-83
2022/05/29 00:42:47;;;;;;;10.87;5.13;;;;;;;7.42;79.80;98510.90;2282280;78;20937;-82
2022/05/29 00:45:47;;;;;;;9.83;5.97;;;;;;;7.37;79.94;98515.13;2282224;78;20942;-83
2022/05/29 00:48:48;;;;;;;15.13;6.50;;;;;;;7.33;80.23;98512.02;2282082;78;20950;-83
2022/05/29 00:51:48;;;;;;;10.60;5.00;;;;;;;7.31;80.31;98504.63;2282060;78;21016;-83
2022/05/29 00:54:53;;;;;;;13.97;6.07;;;;;;;7.27;80.74;98500.22;2281968;78;20871;-83
2022/05/29 00:57:49;;;;;;;17.40;6.30;;;;;;;7.27;80.67;98501.09;2282012;78;20971;-82
2022/05/29 01:00:49;;;;;;;14.30;4.63;;;;;;;7.28;80.96;98499.37;2281893;78;21348;-82
2022/05/29 01:03:50;;;;;;;9.93;4.60;;;;;;;7.28;80.84;98505.87;2281994;78;20935;-82
2022/05/29 01:06:52;;;;;;;14.70;5.60;;;;;;;7.26;80.81;98504.54;2281574;78;20997;-83
2022/05/29 01:09:51;;;;;;;12.60;4.70;;;;;;;7.25;80.78;98501.49;2281861;78;20883;-83
2022/05/29 01:12:51;;;;;;;13.47;6.00;;;;;;;7.25;80.93;98498.89;2281850;78;20963;-82
2022/05/29 01:15:51;;;;;;;9.57;4.33;;;;;;;7.23;80.50;98503.61;2281867;77;21321;-83
2022/05/29 01:18:52;;;;;;;10.40;4.23;;;;;;;7.23;80.50;98503.61;2281590;77;20911;-82
2022/05/29 01:21:52;;;;;;;7.40;4.77;;;;;;;7.24;81.03;98501.46;2296675;77;20993;-82
2022/05/29 01:24:52;;;;;;;7.77;4.40;;;;;;;7.21;80.80;98502.28;2305669;77;20956;-82
2022/05/29 01:27:53;;;;;;;6.10;3.93;;;;;;;7.20;80.74;98500.95;2305871;77;20942;-82
2022/05/29 01:30:53;;;;;;;6.93;4.33;;;;;;;7.16;80.56;98497.42;2305670;77;20921;-82
2022/05/29 01:33:54;;;;;;;6.80;4.60;;;;;;;7.14;80.80;98500.83;2305535;77;21012;-82
2022/05/29 01:36:54;;;;;;;9.40;4.47;;;;;;;7.12;80.79;98501.22;2305774;77;21021;-82
2022/05/29 01:39:54;;;;;;;9.70;4.40;;;;;;;7.09;80.59;98500.73;2305997;77;20925;-82
2022/05/29 01:42:55;;;;;;;6.40;4.43;;;;;;;7.02;80.31;98508.83;2305933;77;20956;-83
2022/05/29 01:45:55;;;;;;;7.90;4.10;;;;;;;6.92;80.09;98504.25;2305853;77;21305;-82
2022/05/29 01:48:56;;;;;;;5.70;3.20;;;;;;;6.80;80.29;98504.00;2305989;77;20980;-82
2022/05/29 01:51:56;;;;;;;11.37;3.80;;;;;;;6.69;80.11;98508.95;2305833;77;20961;-82
2022/05/29 01:54:56;;;;;;;12.10;4.07;;;;;;;6.62;80.19;98508.80;2305870;77;20913;-82
2022/05/29 01:57:57;;;;;;;11.30;4.33;;;;;;;6.56;80.50;98508.66;2306110;77;20960;-82
2022/05/29 02:00:57;;;;;;;6.43;4.10;;;;;;;6.54;80.77;98507.75;2306083;77;20929;-81
2022/05/29 02:03:58;;;;;;;10.40;5.17;;;;;;;6.52;80.76;98504.24;2306139;77;20874;-82
2022/05/29 02:10:17;;;;;;;11.37;6.33;;;;;;;6.44;80.77;98504.49;2305984;77;20929;-83
2022/05/29 02:13:17;;;;;;;6.90;4.03;;;;;;;6.37;80.88;98510.84;2306286;77;20978;-84
2022/05/29 02:16:18;;;;;;;10.50;4.27;;;;;;;6.34;81.33;98502.98;2306159;77;20910;-84
2022/05/29 02:19:18;;;;;;;9.23;3.90;;;;;;;6.34;81.35;98505.58;2306169;77;20906;-82
2022/05/29 02:22:18;;;;;;;8.83;4.30;;;;;;;6.29;81.07;98515.39;2252265;77;20991;-81
2022/05/29 02:25:19;;;;;;;7.33;4.03;;;;;;;6.24;81.36;98518.29;2229025;80;20944;-83
2022/05/29 02:28:19;;;;;;;13.23;3.70;;;;;;;6.22;81.35;98511.77;2229236;80;20916;-82
2022/05/29 02:31:20;;;;;;;8.47;3.70;;;;;;;6.21;81.77;98524.28;2229333;80;20905;-83
2022/05/29 02:34:20;;;;;;;9.20;3.83;;;;;;;6.23;81.62;98518.71;2229233;80;20905;-82
2022/05/29 02:37:23;;;;;;;7.43;4.00;;;;;;;6.17;81.13;98522.45;2195819;81;21028;-81
2022/05/29 02:40:24;;;;;;;6.97;3.70;;;;;;;6.07;81.21;98530.84;2223351;80;21330;-81
2022/05/29 02:43:24;;;;;;;7.17;3.63;;;;;;;6.01;81.50;98534.12;2229071;80;20932;-82
2022/05/29 02:46:25;;;;;;;8.47;3.60;;;;;;;6.01;81.48;98535.84;2229254;80;20963;-82
2022/05/29 02:49:25;;;;;;;8.63;3.80;;;;;;;5.98;81.56;98534.47;2229191;80;20928;-82
2022/05/29 02:52:25;;;;;;;6.70;3.70;;;;;;;6.00;81.76;98532.38;2229147;80;21443;-82
2022/05/29 02:55:26;;;;;;;8.53;3.53;;;;;;;6.02;81.67;98537.59;2229041;80;20905;-81
2022/05/29 02:58:26;;;;;;;8.93;4.40;;;;;;;5.98;81.14;98534.47;2228812;80;20940;-82
2022/05/29 03:01:27;;;;;;;8.03;3.63;;;;;;;5.91;81.25;98536.45;2229345;80;20916;-82
2022/05/29 03:04:28;;;;;;;7.77;3.87;;;;;;;5.85;81.40;98536.27;2229406;80;20924;-82
2022/05/29 03:07:27;;;;;;;9.67;3.60;;;;;;;5.82;81.30;98544.83;2229439;80;21351;-82
2022/05/29 03:10:28;;;;;;;7.50;3.30;;;;;;;5.85;81.64;98547.50;2229519;80;20980;-81
2022/05/29 03:13:28;;;;;;;8.17;3.70;;;;;;;5.91;81.71;98555.88;2229142;80;21343;-81
2022/05/29 03:16:29;;;;;;;8.87;3.90;;;;;;;6.00;82.42;98541.45;2229504;80;20913;-82
2022/05/29 03:19:30;;;;;;;10.03;4.23;;;;;;;6.12;82.24;98550.39;2229437;80;20968;-82
2022/05/29 03:22:29;;;;;;;11.60;4.80;;;;;;;6.22;82.82;98553.66;2271614;78;21345;-82
2022/05/29 03:25:30;;;;;;;7.67;4.20;;;;;;;6.32;82.77;98549.16;2291904;77;20942;-81
2022/05/29 03:28:30;;;;;;;15.70;4.27;;;;;;;6.43;82.78;98556.77;2291424;77;20992;-81
2022/05/29 03:31:31;;;;;;;9.07;3.80;;;;;;;6.51;82.23;98550.46;2291574;77;20937;-82
2022/05/29 03:34:34;;;;;;;8.77;4.33;;;;;;;6.56;82.25;98557.93;2291548;78;20922;-83
2022/05/29 03:37:34;;;;;;;14.20;4.63;;;;;;;6.66;82.52;98550.81;2291477;78;21024;-83
2022/05/29 03:40:34;;;;;;;9.43;4.40;;;;;;;6.77;82.45;98555.81;2291600;77;20972;-82
2022/05/29 03:43:35;;;;;;;8.83;3.87;;;;;;;6.86;82.38;98553.42;2291434;77;20929;-81
2022/05/29 03:46:35;;;;;;;11.07;4.47;;;;;;;6.94;82.57;98551.91;2291872;77;20969;-82
2022/05/29 03:49:36;;;;;;;7.83;4.13;;;;;;;7.06;82.29;98549.98;2291592;77;20909;-82
2022/05/29 03:52:36;;;;;;;11.83;4.80;;;;;;;7.18;82.18;98550.66;2291564;77;21032;-81
2022/05/29 03:55:36;;;;;;;9.40;5.50;;;;;;;7.28;81.95;98552.17;2291407;77;21305;-81
2022/05/29 03:58:37;;;;;;;14.20;5.50;;;;;;;7.39;81.77;98553.69;2291738;77;20964;-82
2022/05/29 04:01:37;;;;;;;10.67;6.20;;;;;;;7.49;81.63;98551.72;2291919;77;20906;-81
2022/05/29 04:04:38;;;;;;;10.17;5.60;;;;;;;7.62;81.41;98555.00;2291695;77;20964;-83
2022/05/29 04:14:16;;;;;;;13.43;5.23;;;;;;;8.33;80.57;98551.97;2291405;77;21025;-81
2022/05/29 04:17:16;;;;;;;11.33;4.70;;;;;;;8.55;80.02;98550.15;2290891;77;20921;-81
2022/05/29 04:20:18;;;;;;;10.73;4.50;;;;;;;8.73;79.42;98549.58;2290639;77;20976;-81
2022/05/29 04:23:17;;;;;;;8.47;3.80;;;;;;;8.92;78.64;98543.77;2290640;78;21028;-79
2022/05/29 04:26:18;;;;;;;8.10;4.20;;;;;;;9.10;78.05;98544.87;2290821;77;20984;-80
2022/05/29 04:29:19;;;;;;;11.30;4.33;;;;;;;9.26;77.60;98546.80;2291238;78;20958;-80
2022/05/29 04:35:38;;;;;;;10.17;4.20;;;;;;;9.62;76.57;98542.48;2291421;77;20982;-79
2022/05/29 04:38:39;;;;;;;8.57;4.57;;;;;;;9.84;76.14;98546.18;2290363;77;21025;-79
2022/05/29 04:41:39;;;;;;;10.73;4.97;;;;;;;10.00;74.55;98553.29;2291373;77;20964;-80
2022/05/29 04:44:39;;;;;;;14.20;4.42;;;;;;;10.11;74.99;98555.99;2291179;78;21306;-79
2022/05/29 04:47:40;;;;;;;10.65;4.40;;;;;;;10.27;74.36;98558.34;2291274;77;20942;-78
2022/05/29 04:50:40;;;;;;;10.50;4.08;;;;;;;10.40;74.19;98561.09;2291303;77;20914;-78
2022/05/29 04:53:41;;;;;;;11.88;3.87;;;;;;;10.56;73.72;98563.82;2290924;77;21337;-80
2022/05/29 04:56:41;;;;;;;10.25;3.37;;;;;;;10.76;73.10;98561.79;2291125;78;20926;-79
2022/05/29 04:59:41;;;;;;;8.28;4.37;;;;;;;10.94;72.28;98567.98;2291728;78;20957;-81
2022/05/29 05:02:42;;;;;;;7.67;4.12;;;;;;;11.02;71.66;98565.86;2291530;77;20878;-81
2022/05/29 05:05:42;;;;;;;15.05;4.00;;;;;;;11.19;71.98;98567.25;2291756;77;20898;-82
2022/05/29 05:08:43;;;;;;;11.10;4.03;;;;;;;11.36;70.87;98561.70;2291790;77;20941;-81
2022/05/29 05:11:43;;;;;;;8.28;3.45;;;;;;;11.48;70.48;98572.20;2291738;77;20913;-82
2022/05/29 05:14:44;;;;;;;9.35;4.17;;;;;;;11.58;69.67;98569.19;2291818;77;20946;-81
2022/05/29 05:17:44;;;;;;;13.62;3.55;;;;;;;11.65;69.20;98574.01;2292394;78;20950;-83
2022/05/29 05:20:44;;;;;;;19.35;4.40;;;;;;;11.77;69.75;98579.27;2291408;77;20976;-81
2022/05/29 05:23:45;;;;;;;10.08;3.70;;;;;;;11.97;68.99;98576.30;2284945;77;21033;-81
2022/05/29 05:26:45;;;;;;;10.80;3.60;;;;;;;12.10;68.53;98584.61;2285369;78;21091;-81
2022/05/29 05:29:48;;;;;;;9.80;3.62;;;;;;;12.26;68.43;98584.66;2285196;78;20914;-81
2022/05/29 05:32:48;;;;;;;8.45;3.27;;;;;;;12.46;67.97;98580.75;2285025;78;20946;-81
2022/05/29 05:35:49;;;;;;;9.08;3.47;;;;;;;12.64;66.35;98572.89;2285304;78;20990;-82
2022/05/29 05:38:51;;;;;;;10.20;3.52;;;;;;;12.75;66.10;98572.00;2285645;77;20942;-82
2022/05/29 05:41:49;;;;;;;8.55;3.15;;;;;;;12.81;65.74;98568.94;2285581;77;20946;-81
2022/05/29 05:44:50;;;;;;;8.90;3.15;;;;;;;12.86;65.79;98573.30;2285323;77;20939;-81
2022/05/29 05:47:50;;;;;;;8.05;2.80;;;;;;;12.93;65.44;98573.72;2284905;78;20946;-83
2022/05/29 05:50:51;;;;;;;9.28;3.35;;;;;;;12.98;64.70;98575.02;2284986;77;20958;-81
2022/05/29 05:53:51;;;;;;;9.68;3.25;;;;;;;12.90;63.72;98575.03;2284972;78;20964;-79
2022/05/29 05:56:51;;;;;;;10.32;3.33;;;;;;;12.97;65.49;98564.11;2284568;78;21314;-79
2022/05/29 05:59:52;;;;;;;13.20;3.35;;;;;;;13.11;63.52;98567.59;2285144;77;20957;-80
2022/05/29 06:02:52;;;;;;;13.20;2.95;;;;;;;13.24;64.85;98568.02;2285221;77;21313;-80
2022/05/29 06:05:53;;;;;;;7.72;3.58;;;;;;;13.50;63.90;98559.19;2285467;78;20914;-80
2022/05/29 06:08:53;;;;;;;11.15;3.52;;;;;;;13.62;64.45;98568.31;2284847;78;20972;-79
2022/05/29 06:11:53;;;;;;;12.55;3.12;;;;;;;13.90;63.11;98566.00;2285206;78;20910;-80
2022/05/29 06:14:54;;;;;;;10.72;3.30;;;;;;;14.06;62.79;98568.53;2284753;78;20975;-80
2022/05/29 06:17:54;;;;;;;10.90;3.40;;;;;;;14.35;63.12;98570.06;2284764;78;20969;-80
2022/05/29 06:20:55;;;;;;;10.15;3.40;;;;;;;14.64;61.70;98575.56;2284834;77;20985;-80
2022/05/29 06:23:55;;;;;;;7.33;2.85;;;;;;;14.75;61.28;98567.17;2281693;77;21009;-80
2022/05/29 06:26:55;;;;;;;10.72;3.33;;;;;;;14.62;59.96;98581.27;2281355;77;21013;-80
2022/05/29 06:29:57;;;;;;;7.78;3.05;;;;;;;14.71;60.75;98573.75;2281865;77;20918;-82
2022/05/29 06:32:57;;;;;;;10.25;3.35;;;;;;;15.21;59.62;98572.83;2281785;77;21345;-80
2022/05/29 06:35:57;;;;;;;9.33;3.00;;;;;;;15.89;58.89;98571.17;2281987;77;20911;-81
2022/05/29 06:38:58;;;;;;;11.22;2.98;;;;;;;15.88;57.84;98569.88;2282133;78;21014;-81
2022/05/29 06:41:57;;;;;;;7.87;2.33;;;;;;;15.62;58.20;98570.22;2282037;78;21322;-81
2022/05/29 06:44:59;;;;;;;6.78;2.70;;;;;;;15.74;57.82;98571.38;2282107;77;20911;-82
2022/05/29 06:47:58;;;;;;;11.03;3.37;;;;;;;16.07;57.17;98577.06;2281966;77;21295;-82
2022/05/29 06:50:58;;;;;;;12.18;3.37;;;;;;;16.00;56.13;98578.91;2282150;77;20915;-81
2022/05/29 06:54:01;;;;;;;5.33;2.33;;;;;;;15.89;56.05;98583.02;2282095;77;20986;-82
2022/05/29 06:56:59;;;;;;;6.90;2.47;;;;;;;16.04;55.45;98584.56;2281597;77;20906;-82
2022/05/29 07:09:56;;;;;;;8.00;2.90;;;;;;;16.09;55.98;98589.77;2281972;78;20958;-82
2022/05/29 07:12:57;;;;;;;7.60;2.55;;;;;;;16.32;54.63;98591.61;2281519;78;20898;-84
2022/05/29 07:15:57;;;;;;;6.00;2.58;;;;;;;16.47;54.48;98591.41;2282411;77;20910;-83
2022/05/29 07:18:58;;;;;;;9.65;3.20;;;;;;;16.81;52.56;98593.52;2282976;77;20915;-84
2022/05/29 07:21:58;;;;;;;9.15;2.85;;;;;;;17.36;52.83;98584.17;2287379;77;20949;-84
2022/05/29 07:24:58;;;;;;;7.17;2.58;;;;;;;17.33;51.21;98582.88;2305348;77;20977;-83
2022/05/29 07:27:59;;;;;;;10.20;3.20;;;;;;;16.81;51.04;98592.20;2305970;77;20996;-84
2022/05/29 07:30:59;;;;;;;10.72;2.70;;;;;;;16.41;50.68;98592.78;2306187;77;20945;-83
2022/05/29 07:34:00;;;;;;;6.00;2.85;;;;;;;15.92;51.46;98596.13;2305458;77;20976;-83
2022/05/29 07:37:00;;;;;;;5.70;2.72;;;;;;;15.55;52.74;98586.91;2306218;77;20944;-83
2022/05/29 07:40:02;;;;;;;5.12;2.67;;;;;;;15.45;52.84;98590.09;2305766;77;20954;-82
2022/05/29 07:43:19;;;;;;;6.37;2.47;;;;;;;15.97;52.47;98582.03;2306624;77;20940;-83
2022/05/29 07:46:19;;;;;;;7.97;2.67;;;;;;;16.59;52.00;98577.61;2306618;77;21001;-83
2022/05/29 07:49:21;;;;;;;5.22;2.08;;;;;;;17.40;50.15;98585.86;2305858;77;20949;-83
2022/05/29 07:52:20;;;;;;;5.50;2.10;;;;;;;17.60;49.86;98574.90;2306277;77;20912;-83
2022/05/29 07:55:21;;;;;;;7.75;2.20;;;;;;;17.34;49.77;98573.20;2306304;77;20882;-83
2022/05/29 07:58:21;;;;;;;6.85;1.70;;;;;;;17.81;48.96;98573.61;2306228;77;20910;-81
2022/05/29 08:01:22;;;;;;;6.00;2.00;;;;;;;18.48;47.75;98577.84;2306041;77;20914;-83
2022/05/29 08:04:22;;;;;;;4.03;2.25;;;;;;;18.70;46.02;98574.66;2306253;77;20906;-82
2022/05/29 08:07:22;;;;;;;5.30;2.25;;;;;;;17.98;46.79;98574.56;2306091;77;20980;-81
2022/05/29 08:10:23;;;;;;;8.55;2.27;;;;;;;17.73;46.95;98572.45;2306031;77;20905;-81
2022/05/29 08:13:24;;;;;;;5.35;2.08;;;;;;;17.79;46.67;98571.00;2304873;77;21040;-81
2022/05/29 08:16:24;;;;;;;5.08;2.20;;;;;;;17.99;47.00;98564.41;2306271;77;20882;-82
2022/05/29 08:19:25;;;;;;;5.53;1.85;;;;;;;18.24;46.35;98568.27;2306015;77;20937;-82
2022/05/29 08:22:25;;;;;;;6.50;2.05;;;;;;;18.15;46.09;98569.31;2302068;77;20985;-81
2022/05/29 08:32:03;;;;;;;6.53;2.50;;;;;;;17.34;46.42;98571.47;2291725;78;21385;-83
2022/05/29 08:35:04;;;;;;;6.87;1.92;;;;;;;17.97;46.17;98564.45;2291806;77;20914;-83
2022/05/29 08:38:04;;;;;;;2.95;1.90;;;;;;;17.90;44.99;98560.66;2291751;77;20938;-81
2022/05/29 08:41:04;;;;;;;3.98;1.80;;;;;;;18.23;44.06;98565.21;2291302;77;20930;-82
2022/05/29 08:44:05;;;;;;;4.87;2.08;;;;;;;18.68;43.93;98558.42;2291743;77;20927;-83
2022/05/29 08:47:05;;;;;;;3.52;2.10;;;;;;;18.81;42.56;98562.95;2291546;77;21004;-82
2022/05/29 08:50:06;;;;;;;4.97;1.80;;;;;;;19.04;41.94;98557.47;2291475;77;21340;-82
2022/05/29 08:53:06;;;;;;;3.35;1.70;;;;;;;19.56;40.06;98560.51;2291632;77;20962;-83
2022/05/29 08:56:06;;;;;;;3.60;1.67;;;;;;;19.83;39.84;98554.86;2291813;77;20906;-82
2022/05/29 08:59:07;;;;;;;4.60;1.80;;;;;;;19.65;39.69;98558.47;2291902;77;21348;-83
2022/05/29 09:02:07;;;;;;;3.80;1.60;;;;;;;19.28;40.25;98561.71;2292157;77;20886;-82
2022/05/29 09:05:08;;;;;;;5.67;2.25;;;;;;;19.00;39.98;98558.45;2292232;78;20938;-83
2022/05/29 09:08:08;;;;;;;4.35;2.50;;;;;;;18.92;40.09;98560.44;2291991;77;21321;-82
2022/05/29 09:11:08;;;;;;;4.20;2.40;;;;;;;18.28;40.95;98565.97;2292168;77;20938;-82
2022/05/29 09:14:09;;;;;;;6.12;1.98;;;;;;;17.78;41.29;98569.27;2291918;77;20918;-82
2022/05/29 09:17:09;;;;;;;6.00;2.02;;;;;;;17.45;40.84;98567.30;2291786;77;21270;-82
2022/05/29 09:20:10;;;;;;;7.03;2.08;;;;;;;17.22;42.05;98562.89;2291947;77;20982;-82
2022/05/29 09:23:10;;;;;;;4.42;1.57;;;;;;;17.10;42.97;98571.45;2291509;77;21019;-81
2022/05/29 09:26:10;;;;;;;4.22;2.20;;;;;;;17.16;43.86;98578.38;2291894;77;20962;-82
2022/05/29 09:29:11;;;;;;;4.85;2.20;;;;;;;17.27;43.10;98570.27;2291785;77;20933;-82
2022/05/29 09:32:11;;;;;;;12.00;2.40;;;;;;;17.45;43.41;98573.44;2292070;78;20914;-82
2022/05/29 09:35:11;;;;;;;2.77;1.70;;;;;;;18.07;43.48;98573.03;2291697;77;20962;-82
2022/05/29 09:38:12;;;;;;;5.53;1.90;;;;;;;18.50;40.07;98567.64;2291045;77;21005;-81
2022/05/29 09:41:12;;;;;;;4.28;1.75;;;;;;;18.37;40.26;98567.07;2291502;77;20925;-81
2022/05/29 09:44:13;;;;;;;5.72;1.82;;;;;;;18.12;40.63;98568.06;2291887;77;20879;-82
2022/05/29 09:50:32;;;;;;;2.87;1.60;;;;;;;18.05;40.82;98562.95;2291601;78;21420;-81
2022/05/29 09:53:34;;;;;;;4.62;2.22;;;;;;;18.44;39.96;98566.47;2291629;77;21024;-83
2022/05/29 09:56:33;;;;;;;4.17;1.98;;;;;;;18.99;39.63;98560.69;2291636;78;20894;-81
2022/05/29 09:59:33;;;;;;;3.62;1.55;;;;;;;19.43;36.10;98548.50;2291549;77;20978;-82
2022/05/29 10:02:33;;;;;;;4.33;2.10;;;;;;;19.35;38.21;98550.05;2291750;77;20926;-82
2022/05/29 10:05:34;;;;;;;5.12;2.08;;;;;;;19.20;37.64;98545.17;2291591;77;20879;-82
2022/05/29 10:08:34;;;;;;;4.17;1.77;;;;;;;19.25;38.04;98545.46;2290751;77;21357;-82
2022/05/29 10:11:35;;;;;;;4.72;1.77;;;;;;;19.00;37.00;98554.48;2291797;78;20898;-82
2022/05/29 10:14:35;;;;;;;4.60;1.80;;;;;;;18.80;38.99;98551.50;2291587;77;21155;-82
2022/05/29 10:17:36;;;;;;;5.53;2.00;;;;;;;18.31;38.91;98549.17;2292158;77;20929;-83
2022/05/29 10:20:36;;;;;;;4.75;1.70;;;;;;;18.02;38.87;98548.05;2292213;77;20937;-82
2022/05/29 10:23:36;;;;;;;3.10;1.50;;;;;;;17.99;38.91;98548.13;2286839;77;21064;-82
2022/05/29 10:26:37;;;;;;;3.75;1.62;;;;;;;18.43;37.49;98544.47;2281990;78;21306;-82
2022/05/29 10:29:37;;;;;;;5.47;1.52;;;;;;;19.09;37.25;98534.44;2282237;77;20946;-83
2022/05/29 10:32:37;;;;;;;2.83;1.65;;;;;;;19.67;37.28;98525.32;2282215;78;20906;-83
2022/05/29 10:35:38;;;;;;;3.27;1.60;;;;;;;20.08;35.04;98517.46;2282058;78;20946;-83
2022/05/29 10:38:38;;;;;;;3.95;1.62;;;;;;;20.27;35.23;98515.09;2281837;78;20946;-83
2022/05/29 10:41:39;;;;;;;1.92;1.55;;;;;;;19.99;35.88;98512.45;2282368;77;20953;-84
2022/05/29 10:44:40;;;;;;;4.70;1.40;;;;;;;19.75;36.54;98518.02;2282260;77;20902;-83
2022/05/29 10:47:41;;;;;;;3.55;1.75;;;;;;;19.54;36.13;98512.91;2282265;78;20973;-83
2022/05/29 10:50:40;;;;;;;2.90;1.62;;;;;;;19.18;36.14;98515.25;2282417;78;21334;-83
2022/05/29 10:53:42;;;;;;;3.60;1.70;;;;;;;19.01;36.15;98508.61;2282337;78;21001;-82
2022/05/29 10:56:41;;;;;;;4.40;1.45;;;;;;;19.28;36.08;98507.47;2282508;78;20923;-83
2022/05/29 10:59:41;;;;;;;4.53;2.00;;;;;;;19.40;35.97;98491.23;2282072;77;20938;-83
2022/05/29 11:06:00;;;;;;;4.65;1.57;;;;;;;20.39;34.80;98492.62;2282155;78;20955;-82
2022/05/29 11:09:01;;;;;;;3.80;1.50;;;;;;;21.24;33.98;98489.71;2282014;78;20981;-83
2022/05/29 11:12:01;;;;;;;3.25;1.80;;;;;;;21.81;32.89;98485.34;2282103;77;20965;-83
2022/05/29 11:15:02;;;;;;;3.52;1.80;;;;;;;22.29;31.80;98495.43;2282016;78;20969;-83
2022/05/29 11:18:02;;;;;;;4.25;1.82;;;;;;;22.24;31.57;98500.47;2282307;77;20953;-84
2022/05/29 11:21:04;;;;;;;4.17;1.80;;;;;;;21.59;32.30;98499.87;2282106;77;21341;-83
2022/05/29 11:24:03;;;;;;;3.83;1.57;;;;;;;20.95;33.40;98503.54;2287290;77;21029;-83
2022/05/29 11:27:03;;;;;;;4.15;2.00;;;;;;;20.52;33.56;98508.55;2292105;77;20946;-82
2022/05/29 11:30:03;;;;;;;6.05;1.92;;;;;;;20.33;33.17;98505.16;2291929;77;20906;-83
2022/05/29 11:33:04;;;;;;;3.00;1.77;;;;;;;20.25;34.61;98505.86;2291772;77;20940;-82
2022/05/29 11:36:05;;;;;;;5.30;2.95;;;;;;;20.24;33.52;98507.23;2291839;77;20910;-83
2022/05/29 11:39:05;;;;;;;4.30;1.70;;;;;;;20.26;34.13;98514.22;2291441;77;20914;-82
2022/05/29 11:42:06;;;;;;;3.52;2.20;;;;;;;20.07;34.73;98518.84;2291893;77;20957;-82
2022/05/29 11:45:06;;;;;;;2.72;1.47;;;;;;;20.07;34.45;98515.73;2292078;77;20926;-83
2022/05/29 11:51:25;;;;;;;3.35;1.60;;;;;;;20.26;33.83;98508.05;2292697;78;20950;-83
2022/05/29 11:54:26;;;;;;;2.45;1.55;;;;;;;20.52;33.39;98511.20;2294402;77;21411;-83
2022/05/29 11:57:26;;;;;;;5.55;2.02;;;;;;;20.90;33.69;98504.62;2292023;78;21008;-84
2022/05/29 12:00:27;;;;;;;4.28;1.77;;;;;;;21.46;31.87;98496.42;2292415;77;20990;-84
2022/05/29 12:03:27;;;;;;;4.50;2.00;;;;;;;21.59;31.71;98497.23;2291915;78;20964;-84
2022/05/29 12:06:28;;;;;;;3.17;1.72;;;;;;;21.57;32.15;98496.41;2292022;77;20937;-83
2022/05/29 12:09:28;;;;;;;3.05;1.67;;;;;;;21.52;31.62;98499.70;2291760;77;21013;-81
2022/05/29 12:12:29;;;;;;;5.60;1.98;;;;;;;21.38;32.36;98491.86;2291763;77;20878;-81
2022/05/29 12:15:30;;;;;;;3.72;1.72;;;;;;;21.66;31.90;98496.99;2291828;77;21277;-81
2022/05/29 12:18:29;;;;;;;3.98;1.50;;;;;;;21.97;31.72;98494.91;2291562;77;20922;-82
2022/05/29 12:21:30;;;;;;;4.60;1.77;;;;;;;21.75;30.55;98498.86;2291831;77;20906;-82
2022/05/29 12:24:30;;;;;;;5.10;1.90;;;;;;;21.56;31.66;98492.03;2286726;77;21376;-80
2022/05/29 12:27:30;;;;;;;5.40;2.00;;;;;;;21.14;31.31;98495.78;2284286;78;20950;-81
2022/05/29 12:30:32;;;;;;;4.12;1.90;;;;;;;20.72;31.95;98492.83;2284911;78;20906;-81
2022/05/29 12:33:32;;;;;;;2.30;1.70;;;;;;;20.49;32.39;98496.73;2284977;77;21282;-83
2022/05/29 12:36:32;;;;;;;6.45;1.70;;;;;;;20.11;32.73;98492.19;2285489;77;20906;-83
2022/05/29 12:39:32;;;;;;;7.75;2.00;;;;;;;20.55;35.80;98487.23;2285152;77;20941;-82
2022/05/29 12:42:33;;;;;;;5.40;2.40;;;;;;;20.90;35.05;98479.42;2285432;78;21332;-83
2022/05/29 12:45:33;;;;;;;6.37;1.90;;;;;;;21.08;32.97;98465.95;2284835;78;20949;-83
2022/05/29 12:48:33;;;;;;;4.85;1.92;;;;;;;21.52;34.33;98451.05;2284796;78;20958;-83
2022/05/29 12:51:34;;;;;;;6.22;2.25;;;;;;;21.68;32.71;98459.31;2284799;77;20938;-83
2022/05/29 12:54:34;;;;;;;3.20;1.82;;;;;;;21.88;33.07;98460.72;2284602;77;21005;-83
2022/05/29 12:57:35;;;;;;;2.40;1.60;;;;;;;22.43;35.42;98462.02;2284545;78;21338;-83
2022/05/29 13:00:35;;;;;;;8.88;1.82;;;;;;;22.94;33.42;98461.23;2284707;77;20973;-82
2022/05/29 13:03:35;;;;;;;3.65;1.55;;;;;;;22.80;29.82;98469.36;2284705;77;20933;-82
2022/05/29 13:06:36;;;;;;;3.17;1.82;;;;;;;22.50;34.84;98467.48;2284582;78;21360;-83
2022/05/29 13:09:36;;;;;;;2.70;1.60;;;;;;;22.99;35.63;98461.89;2285011;77;21014;-83
2022/05/29 13:12:36;;;;;;;5.00;1.98;;;;;;;23.26;30.14;98457.99;2284671;78;20989;-83
2022/05/29 13:15:37;;;;;;;3.77;1.90;;;;;;;22.76;33.57;98457.55;2284818;77;21281;-82
2022/05/29 13:18:40;;;;;;;3.98;1.95;;;;;;;22.92;32.59;98459.97;2284571;78;20918;-82
2022/05/29 13:21:38;;;;;;;5.17;2.10;;;;;;;22.92;29.76;98463.10;2284901;78;20947;-83
2022/05/29 13:24:38;;;;;;;6.45;3.00;;;;;;;22.49;30.04;98456.91;2284520;77;20978;-82
2022/05/29 13:27:38;;;;;;;3.45;1.67;;;;;;;22.25;30.78;98459.66;2284748;77;20911;-82
2022/05/29 13:30:39;;;;;;;3.27;1.75;;;;;;;22.35;29.77;98457.95;2284642;77;20990;-83
2022/05/29 13:33:39;;;;;;;3.67;1.95;;;;;;;22.25;29.80;98458.34;2284256;78;20942;-82
2022/05/29 13:36:41;;;;;;;2.95;1.70;;;;;;;22.11;30.96;98458.04;2284784;77;20895;-82
2022/05/29 13:39:40;;;;;;;3.00;1.77;;;;;;;22.21;31.55;98453.20;2284692;77;20930;-81
2022/05/29 13:42:40;;;;;;;6.10;2.00;;;;;;;22.11;32.61;98448.73;2284666;78;20902;-82
2022/05/29 13:45:41;;;;;;;3.42;1.50;;;;;;;22.00;33.18;98446.08;2284655;77;20947;-80
2022/05/29 13:48:41;;;;;;;5.55;1.75;;;;;;;21.90;30.26;98452.23;2284675;77;20902;-81
2022/05/29 13:51:44;;;;;;;5.37;1.70;;;;;;;21.45;30.65;98449.08;2284691;77;20878;-80
2022/05/29 13:54:44;;;;;;;2.85;1.77;;;;;;;21.36;30.77;98445.45;2284637;77;20938;-81
2022/05/29 14:04:20;;;;;;;4.67;1.82;;;;;;;21.97;29.94;98442.22;2284666;78;21008;-81
2022/05/29 14:07:21;;;;;;;3.12;1.90;;;;;;;21.83;30.16;98442.77;2284557;77;20934;-80
2022/05/29 14:10:21;;;;;;;4.00;1.98;;;;;;;22.00;30.18;98436.78;2284739;77;21325;-80
2022/05/29 14:13:22;;;;;;;5.40;1.90;;;;;;;22.16;29.78;98440.11;2284759;77;20907;-81
2022/05/29 14:16:22;;;;;;;3.00;1.60;;;;;;;22.34;29.47;98437.14;2284653;78;20906;-81
2022/05/29 14:19:22;;;;;;;5.65;2.30;;;;;;;22.52;29.43;98441.68;2284714;77;21290;-80
2022/05/29 14:25:32;;;;;;;4.75;1.52;;;;;;;22.79;28.23;98428.15;2301938;77;20980;-81
2022/05/29 14:28:33;;;;;;;3.67;1.50;;;;;;;22.74;28.15;98427.48;2305954;77;20950;-80
2022/05/29 14:31:33;;;;;;;3.77;1.95;;;;;;;22.58;28.10;98427.29;2305696;77;21363;-80
2022/05/29 14:34:34;;;;;;;4.28;1.62;;;;;;;22.43;27.83;98425.25;2306129;77;20973;-80
2022/05/29 14:37:34;;;;;;;2.92;1.65;;;;;;;22.29;28.54;98416.53;2305945;77;21278;-80
2022/05/29 14:40:35;;;;;;;3.02;1.52;;;;;;;22.36;28.48;98423.32;2305811;77;20913;-80
2022/05/29 14:43:35;;;;;;;3.37;1.80;;;;;;;22.41;28.21;98417.80;2306101;77;20933;-79
2022/05/29 14:49:54;;;;;;;4.97;2.17;;;;;;;22.65;28.51;98423.90;2305948;77;20914;-80
2022/05/29 14:52:55;;;;;;;3.67;1.82;;;;;;;22.94;28.13;98412.86;2306080;77;20909;-79
2022/05/29 14:55:55;;;;;;;2.85;1.42;;;;;;;23.08;27.97;98418.89;2305335;77;20973;-80
2022/05/29 14:58:59;;;;;;;4.95;1.82;;;;;;;22.96;27.47;98407.47;2306048;77;20940;-82
2022/05/29 15:01:56;;;;;;;2.20;1.37;;;;;;;22.72;28.30;98405.41;2306217;77;20937;-82